createdAt,value
2022-09-28T00:03:18.766Z,3.90
2022-09-28T00:08:18.240Z,4.00
2022-09-28T00:13:19.910Z,4.40
2022-09-28T00:18:21.394Z,3.67
2022-09-28T00:23:22.565Z,3.97
2022-09-28T00:28:23.663Z,3.97
2022-09-28T00:33:26.869Z,4.00
2022-09-28T00:38:30.864Z,4.00
2022-09-28T00:43:31.499Z,3.95
2022-09-28T00:48:33.828Z,3.97
2022-09-28T00:53:35.503Z,4.07
2022-09-28T00:58:53.154Z,4.30
2022-09-28T01:03:55.413Z,4.35
2022-09-28T01:08:58.658Z,4.68
2022-09-28T01:13:58.165Z,4.28
2022-09-28T01:19:38.645Z,4.70
2022-09-28T01:24:57.108Z,4.38
2022-09-28T01:30:06.654Z,4.70
2022-09-28T01:35:16.738Z,4.97
2022-09-28T01:40:16.996Z,4.82
2022-09-28T01:45:24.643Z,4.50
2022-09-28T01:50:28.268Z,3.83
2022-09-28T01:55:29.875Z,4.50
2022-09-28T02:00:29.850Z,4.55
2022-09-28T02:05:41.235Z,4.05
2022-09-28T02:11:12.657Z,5.22
2022-09-28T02:16:37.171Z,5.82
2022-09-28T02:21:47.554Z,6.70
2022-09-28T02:26:47.316Z,6.70
2022-09-28T02:31:46.349Z,6.47
2022-09-28T02:36:46.263Z,6.63
2022-09-28T02:42:24.040Z,6.05
2022-09-28T02:48:01.109Z,7.18
2022-09-28T02:53:36.785Z,7.85
2022-09-28T02:58:44.325Z,7.40
2022-09-28T03:03:58.344Z,8.55
2022-09-28T03:09:05.600Z,8.48
2022-09-28T03:14:09.247Z,7.03
2022-09-28T03:19:18.606Z,6.85
2022-09-28T03:24:17.165Z,6.78
2022-09-28T03:29:15.932Z,7.78
2022-09-28T03:34:17.971Z,7.32
2022-09-28T03:39:17.120Z,7.82
2022-09-28T03:44:15.230Z,7.28
2022-09-28T03:49:20.194Z,7.70
2022-09-28T03:54:21.308Z,7.75
2022-09-28T03:59:23.738Z,7.68
2022-09-28T04:04:22.237Z,7.40
2022-09-28T04:09:24.201Z,7.63
2022-09-28T04:14:26.065Z,6.75
2022-09-28T04:19:27.671Z,6.88
2022-09-28T04:24:43.669Z,7.07
2022-09-28T04:29:41.893Z,7.13
2022-09-28T04:34:44.300Z,6.30
2022-09-28T04:39:48.579Z,7.03
2022-09-28T04:44:56.010Z,7.10
2022-09-28T04:49:53.768Z,21.52
2022-09-28T04:54:57.896Z,10.95
2022-09-28T04:59:58.395Z,7.00
2022-09-28T05:05:00.267Z,7.93
2022-09-28T05:10:22.228Z,6.82
2022-09-28T05:15:26.353Z,6.35
2022-09-28T05:20:24.946Z,6.68
2022-09-28T05:25:24.853Z,7.00
2022-09-28T05:30:38.531Z,6.45
2022-09-28T05:36:01.305Z,5.40
2022-09-28T05:41:07.327Z,4.95
2022-09-28T05:46:10.269Z,4.57
2022-09-28T05:51:12.270Z,5.38
2022-09-28T05:56:13.373Z,5.85
2022-09-28T06:01:15.541Z,4.20
2022-09-28T06:06:16.233Z,3.17
2022-09-28T06:11:28.045Z,3.33
2022-09-28T06:16:29.358Z,3.88
2022-09-28T06:21:27.356Z,3.22
2022-09-28T06:26:25.360Z,2.63
2022-09-28T06:31:33.379Z,3.50
2022-09-28T06:36:43.446Z,2.85
2022-09-28T06:41:45.022Z,2.80
2022-09-28T06:47:00.626Z,2.40
2022-09-28T06:52:22.499Z,1.75
2022-09-28T06:57:44.305Z,2.20
2022-09-28T07:02:44.647Z,1.98
2022-09-28T07:08:14.893Z,1.92
2022-09-28T07:13:49.975Z,1.83
2022-09-28T07:18:58.087Z,1.80
2022-09-28T07:23:56.697Z,1.95
2022-09-28T07:29:07.939Z,1.60
2022-09-28T07:34:14.391Z,3.05
2022-09-28T07:40:01.247Z,1.55
2022-09-28T07:45:04.302Z,1.73
2022-09-28T07:50:06.332Z,1.13
2022-09-28T07:55:17.787Z,1.02
2022-09-28T08:00:37.790Z,1.30
2022-09-28T08:05:42.529Z,1.05
2022-09-28T08:10:47.146Z,1.27
2022-09-28T08:16:13.055Z,1.40
2022-09-28T08:21:46.126Z,1.30
2022-09-28T08:26:44.754Z,1.60
2022-09-28T08:31:48.568Z,1.20
2022-09-28T08:37:12.930Z,1.95
2022-09-28T08:42:56.366Z,1.58
2022-09-28T08:48:39.184Z,1.33
2022-09-28T08:54:26.643Z,1.20
2022-09-28T08:59:54.796Z,1.33
2022-09-28T09:05:15.138Z,1.60
2022-09-28T09:10:59.372Z,1.00
2022-09-28T09:16:28.332Z,0.90
2022-09-28T09:22:01.961Z,0.95
2022-09-28T09:27:15.031Z,1.23
2022-09-28T09:32:25.537Z,1.45
2022-09-28T09:37:27.734Z,0.57
2022-09-28T09:43:29.356Z,0.95
2022-09-28T09:49:00.247Z,0.80
2022-09-28T09:54:13.268Z,0.80
2022-09-28T09:59:32.314Z,1.02
2022-09-28T10:04:38.064Z,0.80
2022-09-28T10:09:46.133Z,1.10
2022-09-28T10:14:59.745Z,0.93
2022-09-28T10:20:00.543Z,0.95
2022-09-28T10:25:01.731Z,0.70
2022-09-28T10:30:10.983Z,1.02
2022-09-28T10:35:22.901Z,0.90
2022-09-28T10:40:47.276Z,0.60
2022-09-28T10:46:04.918Z,0.88
2022-09-28T10:51:07.192Z,0.80
2022-09-28T10:56:28.579Z,0.90
2022-09-28T11:01:35.786Z,0.90
2022-09-28T11:06:42.070Z,1.02
2022-09-28T11:11:44.209Z,0.75
2022-09-28T11:16:45.374Z,0.50
2022-09-28T11:21:46.295Z,1.00
2022-09-28T11:26:50.192Z,1.00
2022-09-28T11:31:52.822Z,0.95
2022-09-28T11:37:27.568Z,0.90
2022-09-28T11:42:45.924Z,0.95
2022-09-28T11:47:55.419Z,0.90
2022-09-28T11:53:06.380Z,0.75
2022-09-28T11:58:17.284Z,0.70
2022-09-28T12:03:29.860Z,0.70
2022-09-28T12:08:39.838Z,1.00
2022-09-28T12:14:10.659Z,0.80
2022-09-28T12:19:17.923Z,0.98
2022-09-28T12:24:34.904Z,0.50
2022-09-28T12:29:41.697Z,0.88
2022-09-28T12:34:43.355Z,0.80
2022-09-28T12:39:57.403Z,0.98
2022-09-28T12:45:05.898Z,0.68
2022-09-28T12:50:38.585Z,0.85
2022-09-28T12:56:06.788Z,1.13
2022-09-28T13:01:38.575Z,0.90
2022-09-28T13:07:14.524Z,0.60
2022-09-28T13:12:33.681Z,0.57
2022-09-28T13:17:53.972Z,0.75
2022-09-28T13:22:57.402Z,1.27
2022-09-28T13:28:09.241Z,0.73
2022-09-28T13:33:12.997Z,0.57
2022-09-28T13:38:20.967Z,0.70
2022-09-28T13:43:32.719Z,1.20
2022-09-28T13:48:59.302Z,1.00
2022-09-28T13:54:45.869Z,1.00
2022-09-28T14:00:18.526Z,0.75
2022-09-28T14:05:28.115Z,0.70
2022-09-28T14:10:54.929Z,0.90
2022-09-28T14:15:52.814Z,0.70
2022-09-28T14:21:14.457Z,0.73
2022-09-28T14:26:25.730Z,1.00
2022-09-28T14:31:28.429Z,0.75
2022-09-28T14:36:49.704Z,0.93
2022-09-28T14:41:47.228Z,0.70
2022-09-28T14:46:50.796Z,1.33
2022-09-28T14:51:56.247Z,1.02
2022-09-28T14:56:57.373Z,1.42
2022-09-28T15:02:05.943Z,2.58
2022-09-28T15:07:03.617Z,3.58
2022-09-28T15:12:02.788Z,2.72
2022-09-28T15:17:09.655Z,1.83
2022-09-28T15:22:18.891Z,1.00
2022-09-28T15:27:21.037Z,1.00
2022-09-28T15:32:26.241Z,0.55
2022-09-28T15:37:26.571Z,0.68
2022-09-28T15:42:23.937Z,0.80
2022-09-28T15:47:33.465Z,1.17
2022-09-28T15:52:40.948Z,1.27
2022-09-28T15:57:42.599Z,0.88
2022-09-28T16:03:08.045Z,0.90
2022-09-28T16:08:06.307Z,1.23
2022-09-28T16:13:24.127Z,1.23
2022-09-28T16:18:23.680Z,2.55
2022-09-28T16:23:33.380Z,2.72
2022-09-28T16:28:34.699Z,3.33
2022-09-28T16:34:10.729Z,15.60
2022-09-28T16:39:14.695Z,6.88
2022-09-28T16:44:19.990Z,11.02
2022-09-28T16:49:25.708Z,10.18
2022-09-28T16:54:49.539Z,9.98
2022-09-28T16:59:54.197Z,5.30
2022-09-28T17:04:52.308Z,21.02
2022-09-28T17:09:52.945Z,20.92
2022-09-28T17:14:52.583Z,20.58
2022-09-28T17:19:50.029Z,15.98
2022-09-28T17:24:47.668Z,12.68
2022-09-28T17:29:46.150Z,13.32
2022-09-28T17:34:51.524Z,14.60
2022-09-28T17:39:53.994Z,10.48
2022-09-28T17:44:52.148Z,10.13
2022-09-28T17:49:50.890Z,10.52
2022-09-28T17:54:48.723Z,11.05
2022-09-28T17:59:47.038Z,10.60
2022-09-28T18:04:52.290Z,9.02
2022-09-28T18:09:58.019Z,8.70
2022-09-28T18:14:55.384Z,6.80
2022-09-28T18:19:53.454Z,7.10
2022-09-28T18:24:51.364Z,7.03
2022-09-28T18:29:49.716Z,6.90
2022-09-28T18:34:47.987Z,6.57
2022-09-28T18:39:48.598Z,6.88
2022-09-28T18:44:46.647Z,6.60
2022-09-28T18:49:46.808Z,6.65
2022-09-28T18:54:47.055Z,6.57
2022-09-28T18:59:48.498Z,6.07
2022-09-28T19:04:46.314Z,3.22
2022-09-28T19:09:44.471Z,4.00
2022-09-28T19:14:42.098Z,3.63
2022-09-28T19:19:39.805Z,3.13
2022-09-28T19:24:37.722Z,4.15
2022-09-28T19:29:35.366Z,4.90
2022-09-28T19:34:32.691Z,4.95
2022-09-28T19:39:41.382Z,5.53
2022-09-28T19:44:40.108Z,5.13
2022-09-28T19:49:40.166Z,5.00
2022-09-28T19:54:39.968Z,5.40
2022-09-28T19:59:38.668Z,3.80
2022-09-28T20:04:37.108Z,3.83
2022-09-28T20:09:34.839Z,2.55
2022-09-28T20:14:37.723Z,2.70
2022-09-28T20:19:40.939Z,2.55
2022-09-28T20:24:44.627Z,3.10
2022-09-28T20:29:46.441Z,2.17
2022-09-28T20:34:46.510Z,2.20
2022-09-28T20:39:45.263Z,3.33
2022-09-28T20:44:43.927Z,3.15
2022-09-28T20:49:44.559Z,2.85
2022-09-28T20:54:43.560Z,2.63
2022-09-28T20:59:43.022Z,2.50
2022-09-28T21:04:41.484Z,2.70
2022-09-28T21:09:39.587Z,2.28
2022-09-28T21:14:39.948Z,2.70
2022-09-28T21:19:37.310Z,3.05
2022-09-28T21:24:34.616Z,2.90
2022-09-28T21:29:36.442Z,2.92
2022-09-28T21:34:36.200Z,2.50
2022-09-28T21:39:35.208Z,1.50
2022-09-28T21:44:36.792Z,1.27
2022-09-28T21:49:34.289Z,1.13
2022-09-28T21:54:32.422Z,1.00
2022-09-28T21:59:30.515Z,1.65
2022-09-28T22:04:29.539Z,2.45
2022-09-28T22:09:27.724Z,2.90
2022-09-28T22:14:27.401Z,2.33
2022-09-28T22:19:25.495Z,1.83
2022-09-28T22:24:24.530Z,1.40
2022-09-28T22:29:26.453Z,1.40
2022-09-28T22:34:25.797Z,1.50
2022-09-28T22:39:24.146Z,1.52
2022-09-28T22:44:23.063Z,2.35
2022-09-28T22:49:21.683Z,2.70
2022-09-28T22:54:20.509Z,2.42
2022-09-28T22:59:19.098Z,2.20
2022-09-28T23:04:17.406Z,2.47
2022-09-28T23:09:18.945Z,2.20
2022-09-28T23:14:17.158Z,2.05
2022-09-28T23:19:16.411Z,1.85
2022-09-28T23:24:14.809Z,2.03
2022-09-28T23:29:13.977Z,2.38
2022-09-28T23:34:12.452Z,2.50
2022-09-28T23:39:13.436Z,1.92
2022-09-28T23:44:14.585Z,2.45
2022-09-28T23:49:13.747Z,2.55
2022-09-28T23:54:16.146Z,2.50
2022-09-28T23:59:15.482Z,2.45
